Time;durP1;ratioP1;P1;durP2;ratioP2;P2;SDS_P1;SDS_P2;PMS_P1;PMS_P2;Temp;Humidity;BMP_temperature;BMP_pressure;BME280_temperature;BME280_humidity;BME280_pressure;Samples;Min_cycle;Max_cycle;Signal;HPM_P1;HPM_P2
2020/12/16 00:01:08;;;;;;;48.50;18.20;;;;;;;2.54;79.99;101415.03;1652644;86;21435;-67
2020/12/16 00:03:35;;;;;;;48.15;16.23;;;;;;;2.59;79.94;101416.52;1651082;87;21178;-66
2020/12/16 00:06:03;;;;;;;47.90;17.32;;;;;;;2.61;79.78;101413.23;1680070;84;21440;-66
2020/12/16 00:08:30;;;;;;;50.20;18.30;;;;;;;2.58;79.64;101421.55;1652616;85;21360;-66
2020/12/16 00:10:59;;;;;;;49.80;18.42;;;;;;;2.59;79.77;101421.44;1651122;86;21388;-67
2020/12/16 00:13:26;;;;;;;59.42;18.57;;;;;;;2.64;79.86;101417.91;1679819;84;21438;-66
2020/12/16 00:15:54;;;;;;;53.38;19.70;;;;;;;2.67;79.77;101422.21;1655786;85;21173;-68
2020/12/16 00:18:21;;;;;;;71.45;17.95;;;;;;;2.68;79.69;101422.09;1679916;84;21858;-66
2020/12/16 00:20:48;;;;;;;53.35;18.70;;;;;;;2.69;79.56;101420.25;1652463;86;21601;-65
2020/12/16 00:23:16;;;;;;;62.40;19.87;;;;;;;2.67;79.46;101420.86;1651272;87;21525;-66
2020/12/16 00:25:44;;;;;;;52.78;19.00;;;;;;;2.68;79.51;101419.87;1680112;84;21934;-66
2020/12/16 00:28:11;;;;;;;65.83;20.40;;;;;;;2.69;79.61;101424.30;1652432;86;21150;-67
2020/12/16 00:30:39;;;;;;;62.33;20.27;;;;;;;2.70;79.62;101424.19;1651036;87;21908;-65
2020/12/16 00:33:06;;;;;;;61.60;18.95;;;;;;;2.71;79.53;101423.20;1680052;84;21202;-66
2020/12/16 00:35:34;;;;;;;67.40;19.55;;;;;;;2.67;79.45;101417.66;1680050;84;21467;-66
2020/12/16 00:38:01;;;;;;;68.22;20.17;;;;;;;2.66;79.48;101415.94;1679864;84;21173;-67
2020/12/16 00:40:29;;;;;;;62.33;20.35;;;;;;;2.66;79.53;101421.35;1655366;85;21417;-66
2020/12/16 00:42:56;;;;;;;55.95;18.52;;;;;;;2.67;79.60;101420.86;1679875;84;21421;-64
2020/12/16 00:45:24;;;;;;;73.30;22.22;;;;;;;2.62;79.50;101421.22;1651875;85;21320;-66
2020/12/16 00:47:51;;;;;;;75.50;21.00;;;;;;;2.57;79.56;101418.48;1650629;87;21181;-64
2020/12/16 00:50:20;;;;;;;67.10;21.35;;;;;;;2.54;79.62;101415.03;1679882;85;21198;-66
2020/12/16 00:52:51;;;;;;;68.52;21.50;;;;;;;2.55;79.76;101415.90;1679810;84;21935;-65
2020/12/16 00:55:19;;;;;;;71.37;21.73;;;;;;;2.57;79.79;101414.42;1652551;86;21424;-67
2020/12/16 00:57:46;;;;;;;66.80;22.40;;;;;;;2.57;79.84;101417.13;1651064;87;21369;-66
2020/12/16 01:00:15;;;;;;;70.90;23.98;;;;;;;2.53;79.92;101413.80;1660484;85;21436;-65
2020/12/16 01:02:44;;;;;;;71.75;22.73;;;;;;;2.53;80.05;101414.66;1655549;85;21870;-65
2020/12/16 01:05:14;;;;;;;71.80;22.60;;;;;;;2.57;80.10;101414.42;1707436;83;21826;-66
2020/12/16 01:07:43;;;;;;;71.57;22.48;;;;;;;2.59;80.06;101401.64;1680012;84;21149;-66
2020/12/16 01:10:12;;;;;;;76.55;23.50;;;;;;;2.59;80.03;101403.84;1652527;86;21777;-67
2020/12/16 01:12:44;;;;;;;68.17;21.90;;;;;;;2.60;80.08;101400.66;1651034;87;21416;-65
2020/12/16 01:15:16;;;;;;;60.70;20.37;;;;;;;2.57;80.05;101397.70;1680164;84;21173;-66
2020/12/16 01:17:45;;;;;;;66.10;20.80;;;;;;;2.57;80.08;101402.25;1655690;86;21408;-65
2020/12/16 01:20:14;;;;;;;71.70;21.23;;;;;;;2.56;80.12;101405.45;1707365;83;21185;-65
2020/12/16 01:22:46;;;;;;;70.95;21.30;;;;;;;2.57;80.10;101393.64;1652502;86;21306;-65
2020/12/16 01:25:20;;;;;;;60.63;19.82;;;;;;;2.59;80.09;101389.46;1651083;85;21185;-67
2020/12/16 01:27:59;;;;;;;67.72;20.88;;;;;;;2.57;80.06;101389.58;1660236;84;21280;-65
2020/12/16 01:30:28;;;;;;;59.35;19.75;;;;;;;2.55;80.05;101391.06;1655746;86;21914;-66
2020/12/16 01:32:56;;;;;;;52.78;18.48;;;;;;;2.54;80.16;101389.34;1680029;85;21799;-65
2020/12/16 01:35:24;;;;;;;60.23;18.98;;;;;;;2.58;80.20;101389.95;1655552;86;21925;-66
2020/12/16 01:37:53;;;;;;;56.70;19.85;;;;;;;2.60;80.09;101386.67;1679996;84;21844;-66
2020/12/16 01:40:22;;;;;;;50.95;19.87;;;;;;;2.61;80.07;101380.27;1678822;84;21158;-65
2020/12/16 01:42:51;;;;;;;56.48;20.32;;;;;;;2.60;79.95;101380.36;1651059;85;21363;-66
2020/12/16 01:45:21;;;;;;;62.50;21.02;;;;;;;2.59;79.96;101375.94;1660628;85;22164;-66
2020/12/16 01:47:49;;;;;;;58.87;19.67;;;;;;;2.59;80.01;101370.03;1655566;86;21930;-65
2020/12/16 01:50:19;;;;;;;55.43;20.68;;;;;;;2.60;79.97;101370.89;1679991;84;21983;-66
2020/12/16 01:52:47;;;;;;;55.40;21.73;;;;;;;2.63;79.88;101369.33;1652654;86;21342;-64
2020/12/16 01:55:17;;;;;;;57.23;22.48;;;;;;;2.62;79.86;101368.47;1651285;87;21185;-66
2020/12/16 01:57:46;;;;;;;58.65;23.62;;;;;;;2.61;79.84;101372.16;1678706;84;21292;-65
2020/12/16 02:00:16;;;;;;;55.60;23.95;;;;;;;2.62;79.84;101368.47;1633679;86;21155;-65
2020/12/16 02:02:48;;;;;;;52.78;19.90;;;;;;;2.62;79.78;101368.95;1651121;87;21213;-65
2020/12/16 02:05:19;;;;;;;46.30;17.27;;;;;;;2.60;79.67;101358.72;1679850;84;21532;-66
2020/12/16 02:07:48;;;;;;;46.50;17.75;;;;;;;2.58;79.61;101360.19;1652550;85;21401;-66
2020/12/16 02:10:17;;;;;;;43.75;18.52;;;;;;;2.54;79.59;101366.83;1632201;87;21177;-65
2020/12/16 02:12:44;;;;;;;42.00;16.87;;;;;;;2.52;79.66;101371.02;1680027;84;21157;-65
2020/12/16 02:15:12;;;;;;;44.45;17.52;;;;;;;2.51;79.68;101364.38;1655772;85;21428;-66
2020/12/16 02:17:41;;;;;;;42.40;17.00;;;;;;;2.47;79.67;101362.41;1707454;82;21181;-67
2020/12/16 02:20:09;;;;;;;43.30;16.67;;;;;;;2.44;79.71;101360.44;1652619;86;21890;-65
2020/12/16 02:22:39;;;;;;;40.33;16.70;;;;;;;2.44;79.75;101359.94;1650629;86;21284;-66
2020/12/16 02:25:10;;;;;;;40.05;16.55;;;;;;;2.44;79.87;101358.59;1660553;85;21173;-65
2020/12/16 02:27:41;;;;;;;47.20;17.48;;;;;;;2.46;79.96;101362.03;1680472;83;21248;-63
2020/12/16 02:30:14;;;;;;;41.40;15.65;;;;;;;2.48;79.94;101364.62;1653004;85;21143;-66
2020/12/16 02:33:00;;;;;;;38.98;15.40;;;;;;;2.46;79.88;101357.12;1651210;85;21213;-65
2020/12/16 02:35:29;;;;;;;38.60;15.30;;;;;;;2.43;79.79;101360.06;1679860;84;21158;-66
2020/12/16 02:37:58;;;;;;;40.85;16.97;;;;;;;2.39;79.82;101356.74;1653528;85;21174;-66
2020/12/16 02:40:26;;;;;;;45.35;18.50;;;;;;;2.37;79.88;101356.50;1651083;85;21221;-65
2020/12/16 02:42:54;;;;;;;48.73;18.82;;;;;;;2.34;80.02;101360.30;1680009;84;21853;-65
2020/12/16 02:45:21;;;;;;;42.33;16.62;;;;;;;2.33;80.10;101356.37;1655723;85;21436;-66
2020/12/16 02:47:51;;;;;;;44.65;17.17;;;;;;;2.32;80.14;101358.70;1682316;83;21366;-65
2020/12/16 02:50:20;;;;;;;44.60;16.77;;;;;;;2.28;80.19;101360.79;1655818;85;21285;-65
2020/12/16 02:52:48;;;;;;;47.13;17.55;;;;;;;2.30;80.33;101359.31;1680042;84;21283;-66
2020/12/16 02:55:18;;;;;;;49.15;19.07;;;;;;;2.29;80.36;101358.45;1652712;85;21116;-65
2020/12/16 02:57:56;;;;;;;47.75;18.70;;;;;;;2.29;80.41;101357.10;1679649;84;21295;-66
2020/12/16 03:00:24;;;;;;;49.05;18.02;;;;;;;2.27;80.45;101361.77;1652594;85;21154;-65
2020/12/16 03:03:05;;;;;;;50.43;17.42;;;;;;;2.26;80.60;101355.99;1678828;85;21178;-66
2020/12/16 03:05:36;;;;;;;51.88;18.20;;;;;;;2.28;80.63;101358.58;1657233;85;21206;-66
2020/12/16 03:08:07;;;;;;;52.67;18.75;;;;;;;2.30;80.61;101356.61;1680134;84;21542;-67
2020/12/16 03:10:37;;;;;;;51.55;20.10;;;;;;;2.32;80.68;101353.30;1652343;85;21907;-66
2020/12/16 03:13:05;;;;;;;54.10;19.60;;;;;;;2.31;80.70;101349.73;1651168;86;21413;-66
2020/12/16 03:15:35;;;;;;;52.05;18.42;;;;;;;2.32;80.69;101353.30;1680106;84;21385;-66
2020/12/16 03:18:04;;;;;;;49.53;18.42;;;;;;;2.32;80.74;101354.64;1678923;85;21344;-65
2020/12/16 03:20:31;;;;;;;46.30;17.90;;;;;;;2.35;80.75;101355.75;1651141;86;21288;-66
2020/12/16 03:22:58;;;;;;;47.35;17.45;;;;;;;2.37;80.76;101350.59;1680028;84;21892;-66
2020/12/16 03:25:45;;;;;;;41.95;17.40;;;;;;;2.38;80.64;101355.02;1652457;85;21484;-67
2020/12/16 03:28:14;;;;;;;44.38;18.52;;;;;;;2.35;80.59;101351.70;1649358;86;21161;-66
2020/12/16 03:30:46;;;;;;;42.67;17.60;;;;;;;2.34;80.58;101346.78;1679501;84;21360;-65
2020/12/16 03:33:22;;;;;;;45.35;17.27;;;;;;;2.32;80.49;101347.89;1658009;85;21405;-65
2020/12/16 03:35:54;;;;;;;47.83;18.02;;;;;;;2.32;80.53;101357.35;1681813;83;21361;-66
2020/12/16 03:38:21;;;;;;;48.20;17.82;;;;;;;2.35;80.50;101358.46;1652551;85;21159;-65
2020/12/16 03:40:51;;;;;;;47.08;17.87;;;;;;;2.33;80.43;101353.66;1650922;86;21201;-65
2020/12/16 03:43:18;;;;;;;48.52;18.50;;;;;;;2.31;80.42;101357.84;1680075;84;21396;-66
2020/12/16 03:45:46;;;;;;;45.52;18.60;;;;;;;2.27;80.39;101355.50;1652774;86;21322;-66
2020/12/16 03:48:14;;;;;;;47.38;17.80;;;;;;;2.25;80.40;101361.03;1651116;87;21414;-65
2020/12/16 03:50:41;;;;;;;55.12;18.95;;;;;;;2.25;80.45;101366.93;1680046;84;21925;-65
2020/12/16 03:53:09;;;;;;;50.92;19.62;;;;;;;2.24;80.46;101362.02;1652582;86;21170;-67
2020/12/16 03:55:57;;;;;;;49.30;20.20;;;;;;;2.23;80.51;101369.27;1678141;85;21217;-67
2020/12/16 03:58:26;;;;;;;53.87;20.40;;;;;;;2.26;80.54;101370.86;1653577;85;21425;-65
2020/12/16 04:01:16;;;;;;;55.35;20.77;;;;;;;2.25;80.52;101373.69;1650688;86;21138;-65
2020/12/16 04:03:45;;;;;;;51.45;19.07;;;;;;;2.25;80.54;101370.98;1660327;85;21393;-66
2020/12/16 04:06:27;;;;;;;46.98;18.85;;;;;;;2.26;80.51;101375.41;1656485;85;21158;-66
2020/12/16 04:08:55;;;;;;;46.50;18.40;;;;;;;2.31;80.52;101374.56;1680048;84;21438;-65
2020/12/16 04:11:27;;;;;;;44.20;18.10;;;;;;;2.34;80.50;101372.47;1652983;85;21309;-65
2020/12/16 04:13:56;;;;;;;44.25;18.77;;;;;;;2.34;80.38;101371.61;1650518;85;21523;-66
2020/12/16 04:16:25;;;;;;;46.70;17.85;;;;;;;2.32;80.29;101377.14;1680144;84;21173;-66
2020/12/16 04:18:54;;;;;;;49.27;17.30;;;;;;;2.30;80.20;101371.48;1656746;85;21919;-67
2020/12/16 04:21:21;;;;;;;44.67;17.10;;;;;;;2.28;80.15;101372.95;1680092;84;21503;-65
2020/12/16 04:23:48;;;;;;;42.58;16.45;;;;;;;2.29;80.04;101371.11;1652529;86;21147;-66
2020/12/16 04:26:25;;;;;;;44.53;18.48;;;;;;;2.29;80.05;101375.17;1678378;85;21971;-65
2020/12/16 04:28:54;;;;;;;45.05;17.42;;;;;;;2.29;80.05;101378.73;1655639;85;21178;-65
2020/12/16 04:31:22;;;;;;;49.85;20.20;;;;;;;2.29;80.02;101380.58;1680043;84;21318;-64
2020/12/16 04:33:49;;;;;;;45.73;17.82;;;;;;;2.28;80.07;101375.66;1655578;85;21502;-65
2020/12/16 04:36:17;;;;;;;44.10;17.12;;;;;;;2.33;80.03;101376.65;1680119;84;21384;-66
2020/12/16 04:38:45;;;;;;;54.23;22.62;;;;;;;2.32;79.89;101374.44;1655649;85;21409;-66
2020/12/16 04:41:15;;;;;;;49.08;18.95;;;;;;;2.33;79.88;101383.41;1680053;84;21364;-66
2020/12/16 04:43:44;;;;;;;49.98;19.30;;;;;;;2.32;79.84;101383.91;1661065;85;21237;-65
2020/12/16 04:46:17;;;;;;;51.85;20.15;;;;;;;2.30;79.81;101380.95;1680324;83;21150;-66
2020/12/16 04:48:46;;;;;;;55.35;18.80;;;;;;;2.30;79.81;101383.66;1660873;85;21169;-64
2020/12/16 04:51:18;;;;;;;51.15;19.07;;;;;;;2.29;79.81;101389.55;1680844;83;21526;-66
2020/12/16 04:53:46;;;;;;;45.70;18.12;;;;;;;2.30;79.83;101387.70;1652413;85;21168;-65
2020/12/16 04:56:15;;;;;;;42.67;17.37;;;;;;;2.31;79.81;101384.02;1650183;86;21174;-66
2020/12/16 04:58:44;;;;;;;45.67;18.62;;;;;;;2.31;79.81;101393.48;1675569;85;21299;-67
2020/12/16 05:01:12;;;;;;;44.50;19.12;;;;;;;2.29;79.81;101390.91;1680006;85;21910;-65
2020/12/16 05:03:41;;;;;;;44.05;16.85;;;;;;;2.30;79.77;101389.06;1653240;85;21250;-66
2020/12/16 05:06:40;;;;;;;39.10;16.23;;;;;;;2.30;79.79;101391.77;1678850;85;21218;-66
2020/12/16 05:09:15;;;;;;;43.87;17.17;;;;;;;2.31;79.71;101401.59;1666510;84;21157;-67
2020/12/16 05:11:46;;;;;;;34.88;14.73;;;;;;;2.30;79.75;101402.09;1655522;85;21461;-65
2020/12/16 05:14:20;;;;;;;35.08;14.65;;;;;;;2.32;79.77;101399.27;1680014;84;21957;-64
2020/12/16 05:17:05;;;;;;;34.43;14.25;;;;;;;2.32;79.66;101395.21;1655545;86;21346;-66
2020/12/16 05:19:42;;;;;;;24.85;10.18;;;;;;;2.30;79.61;101393.98;1680683;83;21134;-68
2020/12/16 05:22:24;;;;;;;34.03;13.18;;;;;;;2.30;79.55;101392.63;1652650;85;21894;-65
2020/12/16 05:24:58;;;;;;;37.98;14.63;;;;;;;2.31;79.45;101390.78;1651046;87;21432;-65
2020/12/16 05:27:28;;;;;;;33.75;14.18;;;;;;;2.30;79.37;101385.01;1680131;84;21166;-64
2020/12/16 05:30:04;;;;;;;34.90;14.45;;;;;;;2.31;79.36;101381.31;1652498;85;21312;-66
2020/12/16 05:32:35;;;;;;;34.23;13.68;;;;;;;2.33;79.33;101380.70;1651096;86;21182;-67
2020/12/16 05:35:24;;;;;;;35.45;14.25;;;;;;;2.33;79.20;101376.65;1680112;84;21194;-66
2020/12/16 05:38:00;;;;;;;33.15;14.00;;;;;;;2.34;79.04;101379.23;1683136;83;21423;-65
2020/12/16 05:40:29;;;;;;;36.48;14.68;;;;;;;2.32;78.92;101378.50;1637470;86;21386;-66
2020/12/16 05:42:56;;;;;;;36.58;14.03;;;;;;;2.29;78.81;101379.23;1680152;85;21193;-67
2020/12/16 05:45:27;;;;;;;37.58;15.72;;;;;;;2.28;78.95;101372.95;1655586;85;21250;-67
2020/12/16 05:48:09;;;;;;;33.73;15.23;;;;;;;2.29;78.88;101376.52;1680200;84;21837;-65
2020/12/16 05:50:54;;;;;;;35.95;15.30;;;;;;;2.31;78.84;101375.91;1655603;85;21250;-66
2020/12/16 05:53:29;;;;;;;40.90;15.88;;;;;;;2.29;78.76;101377.88;1679882;85;21877;-66
2020/12/16 05:56:02;;;;;;;43.10;16.65;;;;;;;2.31;78.81;101390.30;1682947;85;21197;-65
2020/12/16 05:58:32;;;;;;;35.40;15.38;;;;;;;2.34;78.80;101376.53;1655517;86;21360;-67
2020/12/16 06:01:04;;;;;;;35.95;15.23;;;;;;;2.36;78.83;101377.77;1679849;84;21482;-66
2020/12/16 06:03:37;;;;;;;37.42;16.45;;;;;;;2.38;78.68;101379.86;1652510;86;21361;-66
2020/12/16 06:06:11;;;;;;;37.17;14.83;;;;;;;2.35;78.56;101376.90;1652816;85;21110;-66
2020/12/16 06:08:43;;;;;;;39.08;15.90;;;;;;;2.34;78.49;101379.23;1679995;85;21423;-67
2020/12/16 06:11:12;;;;;;;35.43;15.40;;;;;;;2.34;78.40;101385.14;1655620;85;21699;-66
2020/12/16 06:13:45;;;;;;;38.45;16.80;;;;;;;2.32;78.49;101392.02;1680032;85;21178;-65
2020/12/16 06:16:12;;;;;;;38.98;15.72;;;;;;;2.34;78.52;101395.95;1637441;86;21931;-66
2020/12/16 06:18:44;;;;;;;45.70;18.07;;;;;;;2.33;78.48;101397.80;1680055;84;21379;-67
2020/12/16 06:21:12;;;;;;;43.90;18.00;;;;;;;2.35;78.50;101403.08;1652628;86;21203;-66
2020/12/16 06:23:42;;;;;;;41.20;17.55;;;;;;;2.36;78.47;101397.55;1650995;87;21351;-66
2020/12/16 06:26:16;;;;;;;47.15;19.45;;;;;;;2.38;78.47;101401.49;1680143;84;21307;-66
2020/12/16 06:28:45;;;;;;;40.92;19.45;;;;;;;2.40;78.41;101396.33;1652593;85;21346;-66
2020/12/16 06:31:29;;;;;;;42.30;19.35;;;;;;;2.41;78.38;101395.84;1651041;85;21174;-65
2020/12/16 06:34:06;;;;;;;42.50;19.00;;;;;;;2.41;78.40;101402.11;1683340;84;21273;-66
2020/12/16 06:36:43;;;;;;;31.87;13.58;;;;;;;2.41;78.32;101402.59;1652612;85;21171;-67
2020/12/16 06:39:21;;;;;;;34.43;14.65;;;;;;;2.39;78.30;101409.97;1650917;86;21169;-65
2020/12/16 06:41:55;;;;;;;33.45;13.95;;;;;;;2.39;78.19;101412.67;1680125;84;21833;-67
2020/12/16 06:44:22;;;;;;;33.35;14.95;;;;;;;2.37;77.87;101413.29;1679944;84;21874;-65
2020/12/16 06:46:52;;;;;;;33.30;14.15;;;;;;;2.35;77.71;101411.20;1655468;86;21382;-64
2020/12/16 06:49:29;;;;;;;32.03;14.50;;;;;;;2.35;77.50;101412.55;1680098;85;21384;-66
2020/12/16 06:52:09;;;;;;;32.23;14.33;;;;;;;2.33;77.33;101419.92;1683113;84;21189;-66
2020/12/16 06:54:47;;;;;;;31.02;15.25;;;;;;;2.30;77.12;101418.31;1683163;85;21506;-66
2020/12/16 06:57:20;;;;;;;35.75;14.58;;;;;;;2.28;77.01;101420.28;1655668;85;21233;-65
2020/12/16 06:59:51;;;;;;;32.05;14.93;;;;;;;2.28;76.93;101426.18;1680023;85;21483;-66
2020/12/16 07:02:25;;;;;;;33.80;13.18;;;;;;;2.31;76.82;101426.80;1652476;86;21350;-67
2020/12/16 07:04:53;;;;;;;28.27;13.68;;;;;;;2.32;76.65;101428.52;1651007;86;21181;-65
2020/12/16 07:07:51;;;;;;;25.57;13.53;;;;;;;2.32;76.48;101422.25;1680060;85;21186;-66
2020/12/16 07:10:49;;;;;;;27.15;13.05;;;;;;;2.34;76.30;101430.62;1651048;86;21552;-67
2020/12/16 07:13:21;;;;;;;24.65;11.28;;;;;;;2.33;76.05;101430.73;1646869;85;21912;-66
2020/12/16 07:15:53;;;;;;;24.17;12.33;;;;;;;2.31;75.73;101433.56;1651239;86;21902;-65
2020/12/16 07:18:26;;;;;;;15.45;9.15;;;;;;;2.30;75.57;101425.56;1680045;84;21904;-67
2020/12/16 07:21:14;;;;;;;19.57;9.70;;;;;;;2.30;75.42;101416.97;1682924;85;21538;-65
2020/12/16 07:24:07;;;;;;;19.12;10.23;;;;;;;2.32;75.28;101420.91;1655597;85;21152;-68
2020/12/16 07:26:50;;;;;;;21.62;10.32;;;;;;;2.34;75.10;101418.94;1678268;84;21201;-66
2020/12/16 07:29:38;;;;;;;23.87;10.82;;;;;;;2.37;74.89;101416.00;1650913;86;21533;-67
2020/12/16 07:32:12;;;;;;;18.50;9.80;;;;;;;2.36;74.76;101411.08;1646811;86;21456;-66
2020/12/16 07:34:56;;;;;;;19.42;9.48;;;;;;;2.35;74.49;101417.95;1655583;86;21388;-68
2020/12/16 07:37:28;;;;;;;19.98;9.43;;;;;;;2.32;74.22;101416.36;1679658;84;21345;-67
2020/12/16 07:40:00;;;;;;;18.98;10.00;;;;;;;2.33;74.08;101421.27;1682624;84;22116;-67
2020/12/16 07:42:31;;;;;;;21.48;10.38;;;;;;;2.32;74.10;101423.11;1655620;86;21257;-65
2020/12/16 07:45:00;;;;;;;21.17;11.43;;;;;;;2.34;74.13;101425.70;1680160;84;21396;-66
2020/12/16 07:47:28;;;;;;;21.27;11.20;;;;;;;2.34;74.18;101422.99;1652644;85;21374;-68
2020/12/16 07:49:56;;;;;;;18.27;10.23;;;;;;;2.33;74.17;101424.84;1651010;87;21429;-66
2020/12/16 07:52:28;;;;;;;21.65;11.03;;;;;;;2.33;74.17;101423.98;1680024;85;21534;-66
2020/12/16 07:54:56;;;;;;;22.20;10.95;;;;;;;2.33;74.07;101429.38;1655581;86;21344;-68
2020/12/16 07:57:29;;;;;;;20.72;11.10;;;;;;;2.37;73.96;101433.08;1680039;84;21997;-67
2020/12/16 07:59:56;;;;;;;23.35;11.43;;;;;;;2.41;73.85;101435.92;1679859;84;21407;-67
2020/12/16 08:02:24;;;;;;;27.27;15.20;;;;;;;2.43;73.78;101426.33;1655637;86;21954;-67
2020/12/16 08:04:59;;;;;;;20.90;11.18;;;;;;;2.47;73.62;101426.46;1680148;84;21945;-66
2020/12/16 08:07:26;;;;;;;19.35;10.38;;;;;;;2.47;73.35;101427.81;1652613;86;21443;-67
2020/12/16 08:10:05;;;;;;;17.62;9.40;;;;;;;2.44;73.26;101421.30;1651126;85;21258;-65
2020/12/16 08:12:41;;;;;;;19.75;9.85;;;;;;;2.44;73.17;101423.51;1680124;85;21420;-66
2020/12/16 08:15:18;;;;;;;24.23;11.55;;;;;;;2.48;73.00;101425.48;1655502;86;21319;-67
2020/12/16 08:17:47;;;;;;;23.75;12.82;;;;;;;2.49;72.96;101416.38;1679289;85;21503;-67
2020/12/16 08:20:21;;;;;;;42.30;18.42;;;;;;;2.52;72.98;101428.31;1658107;86;21469;-67
2020/12/16 08:22:53;;;;;;;35.73;17.73;;;;;;;2.56;73.02;101423.03;1657916;86;21456;-66
2020/12/16 08:25:21;;;;;;;30.80;15.63;;;;;;;2.55;72.85;101423.52;1658249;86;21231;-66
2020/12/16 08:27:54;;;;;;;23.32;12.15;;;;;;;2.58;72.86;101428.32;1660316;85;22099;-66
2020/12/16 08:30:25;;;;;;;24.90;12.33;;;;;;;2.62;72.66;101423.07;1658036;85;21166;-67
2020/12/16 08:33:01;;;;;;;34.55;14.85;;;;;;;2.63;72.39;101429.71;1658177;85;21494;-67
2020/12/16 08:35:41;;;;;;;50.95;22.82;;;;;;;2.63;72.24;101427.00;1687964;83;21166;-67
2020/12/16 08:38:09;;;;;;;35.17;17.80;;;;;;;2.64;72.20;101426.52;1679248;84;21500;-66
2020/12/16 08:40:39;;;;;;;32.42;16.73;;;;;;;2.63;72.14;101422.09;1687390;85;21182;-69
2020/12/16 08:43:24;;;;;;;41.92;21.10;;;;;;;2.63;72.15;101432.42;1680911;85;21400;-67
2020/12/16 08:46:12;;;;;;;45.80;19.95;;;;;;;2.61;72.13;101428.97;1659723;85;21445;-65
2020/12/16 08:48:49;;;;;;;57.58;22.30;;;;;;;2.60;72.22;101424.55;1659480;86;21434;-67
2020/12/16 08:51:22;;;;;;;40.90;19.70;;;;;;;2.63;72.14;101422.95;1659717;86;21283;-67
2020/12/16 08:53:54;;;;;;;38.33;19.70;;;;;;;2.59;72.01;101419.22;1657828;86;21193;-68
2020/12/16 08:56:33;;;;;;;30.57;16.05;;;;;;;2.57;72.17;101414.42;1659377;86;21485;-66
2020/12/16 08:59:04;;;;;;;32.90;17.45;;;;;;;2.58;72.27;101410.73;1649974;85;21842;-69
2020/12/16 09:01:32;;;;;;;30.88;15.25;;;;;;;2.60;72.28;101411.48;1697464;83;21241;-68
2020/12/16 09:04:00;;;;;;;33.80;15.18;;;;;;;2.58;72.24;101412.95;1701463;83;21390;-66
2020/12/16 09:06:27;;;;;;;29.72;16.73;;;;;;;2.57;72.16;101412.58;1656492;85;21370;-63
2020/12/16 09:08:54;;;;;;;108.35;37.25;;;;;;;2.56;72.18;101410.86;1670780;84;21366;-71
2020/12/16 09:11:22;;;;;;;36.95;18.48;;;;;;;2.54;72.29;101408.27;1696491;84;21839;-69
2020/12/16 09:13:51;;;;;;;45.95;22.48;;;;;;;2.53;72.45;101408.39;1696676;84;21452;-71
2020/12/16 09:16:25;;;;;;;50.33;25.60;;;;;;;2.52;72.52;101406.67;1696707;84;21829;-72
2020/12/16 09:18:53;;;;;;;31.73;18.05;;;;;;;2.51;72.76;101407.16;1658215;85;21523;-73
2020/12/16 09:21:34;;;;;;;32.80;16.67;;;;;;;2.55;72.95;101414.05;1691569;83;21035;-70
2020/12/16 09:24:02;;;;;;;38.53;19.17;;;;;;;2.58;72.92;101421.06;1672488;84;21134;-73
2020/12/16 09:26:55;;;;;;;48.38;23.00;;;;;;;2.61;72.94;101417.29;1665456;84;21652;-72
2020/12/16 09:29:25;;;;;;;38.83;18.65;;;;;;;2.64;73.02;101414.34;1678873;84;21060;-73
2020/12/16 09:32:07;;;;;;;41.58;19.48;;;;;;;2.69;73.10;101410.77;1685644;84;21268;-74
2020/12/16 09:34:46;;;;;;;55.98;25.85;;;;;;;2.70;73.11;101423.32;1675438;84;21193;-71
2020/12/16 09:37:28;;;;;;;37.45;18.82;;;;;;;2.70;73.04;101423.32;1675230;84;21236;-71
2020/12/16 09:40:11;;;;;;;34.23;14.95;;;;;;;2.70;73.09;101414.72;1671423;84;21135;-75
2020/12/16 09:42:39;;;;;;;27.77;13.95;;;;;;;2.70;73.12;101412.50;1674303;84;21205;-73
2020/12/16 09:45:18;;;;;;;32.63;15.72;;;;;;;2.70;73.13;101406.59;1683276;84;21086;-79
2020/12/16 09:47:54;;;;;;;35.70;17.17;;;;;;;2.73;73.23;101409.05;1675613;84;21107;-74
2020/12/16 09:50:26;;;;;;;28.55;15.75;;;;;;;2.73;73.23;101402.29;1676835;85;21652;-75
2020/12/16 09:52:59;;;;;;;34.05;17.65;;;;;;;2.71;73.27;101401.55;1687987;85;21090;-78
2020/12/16 09:55:29;;;;;;;32.13;16.12;;;;;;;2.69;73.27;101399.45;1690720;85;21282;-74
2020/12/16 09:58:06;;;;;;;46.92;23.22;;;;;;;2.68;73.32;101387.41;1688381;85;21074;-72
2020/12/16 10:00:36;;;;;;;37.48;18.15;;;;;;;2.71;73.40;101393.44;1676516;85;21519;-75
2020/12/16 10:03:12;;;;;;;43.28;20.90;;;;;;;2.75;73.38;101392.20;1662541;85;21118;-76
2020/12/16 10:05:40;;;;;;;40.70;17.60;;;;;;;2.76;73.23;101382.24;1662658;85;21695;-76
2020/12/16 10:08:12;;;;;;;65.40;31.55;;;;;;;2.76;73.16;101379.53;1667823;85;21079;-73
2020/12/16 10:10:39;;;;;;;32.03;16.00;;;;;;;2.75;73.07;101380.03;1686571;85;21307;-74
2020/12/16 10:13:07;;;;;;;25.82;14.98;;;;;;;2.75;73.15;101378.67;1686357;85;21071;-74
2020/12/16 10:15:36;;;;;;;36.50;16.07;;;;;;;2.75;73.18;101377.31;1686382;85;21802;-75
2020/12/16 10:18:11;;;;;;;33.23;15.23;;;;;;;2.75;73.14;101377.81;1685955;85;21675;-71
2020/12/16 10:20:59;;;;;;;30.35;15.38;;;;;;;2.74;73.08;101382.85;1684130;85;21269;-72
2020/12/16 10:23:40;;;;;;;32.88;15.28;;;;;;;2.71;72.99;101378.55;1676437;84;21345;-72
2020/12/16 10:26:24;;;;;;;37.78;16.62;;;;;;;2.66;73.07;101372.64;1686632;84;21272;-72
2020/12/16 10:28:51;;;;;;;25.30;13.10;;;;;;;2.66;73.24;101371.78;1695827;84;21813;-75
2020/12/16 10:31:19;;;;;;;22.07;10.98;;;;;;;2.65;73.26;101368.22;1693386;84;21087;-77
2020/12/16 10:33:46;;;;;;;35.35;15.98;;;;;;;2.65;73.22;101371.42;1694869;84;21185;-73
2020/12/16 10:36:13;;;;;;;27.48;13.50;;;;;;;2.64;73.28;101371.05;1686717;84;21406;-77
2020/12/16 10:38:41;;;;;;;22.32;11.90;;;;;;;2.64;73.39;101365.15;1662210;85;21051;-76
2020/12/16 10:41:12;;;;;;;27.93;14.50;;;;;;;2.66;73.40;101369.94;1662539;85;21715;-74
2020/12/16 10:43:39;;;;;;;28.17;15.50;;;;;;;2.64;73.47;101371.05;1679278;84;21332;-76
2020/12/16 10:46:09;;;;;;;64.58;23.77;;;;;;;2.61;73.47;101365.89;1689669;85;21108;-78
2020/12/16 10:48:37;;;;;;;29.90;14.35;;;;;;;2.61;73.57;101365.89;1688819;84;21093;-73
2020/12/16 10:51:04;;;;;;;32.80;15.85;;;;;;;2.61;73.55;101358.63;1676035;84;21074;-68
2020/12/16 10:53:32;;;;;;;54.98;21.93;;;;;;;2.62;73.48;101363.05;1694147;84;21353;-73
2020/12/16 10:56:00;;;;;;;29.50;13.93;;;;;;;2.61;73.46;101357.27;1674140;85;21755;-76
2020/12/16 10:58:27;;;;;;;28.62;13.28;;;;;;;2.58;73.20;101356.63;1676875;84;21121;-75
2020/12/16 11:00:59;;;;;;;24.23;12.43;;;;;;;2.54;73.15;101356.02;1663822;84;21091;-70
2020/12/16 11:03:27;;;;;;;23.22;12.23;;;;;;;2.52;73.25;101355.27;1674977;85;21105;-71
2020/12/16 11:05:54;;;;;;;20.90;11.43;;;;;;;2.53;73.48;101352.45;1677238;84;21293;-68
2020/12/16 11:08:22;;;;;;;22.70;12.35;;;;;;;2.57;73.59;101353.55;1689081;84;21135;-73
2020/12/16 11:10:50;;;;;;;20.27;10.88;;;;;;;2.61;73.61;101353.22;1674418;85;21088;-78
2020/12/16 11:13:18;;;;;;;14.65;8.93;;;;;;;2.64;73.51;101350.27;1661223;86;21105;-75
2020/12/16 11:15:45;;;;;;;15.03;8.73;;;;;;;2.66;73.30;101348.30;1671436;84;21407;-69
2020/12/16 11:18:12;;;;;;;11.60;6.25;;;;;;;2.64;72.99;101346.20;1664163;84;21028;-74
2020/12/16 11:20:40;;;;;;;13.95;7.78;;;;;;;2.63;72.86;101343.13;1690211;83;21072;-73
2020/12/16 11:23:08;;;;;;;13.55;8.23;;;;;;;2.64;72.75;101346.20;1657448;84;21114;-74
2020/12/16 11:25:39;;;;;;;15.28;8.28;;;;;;;2.63;72.73;101348.55;1671711;85;21090;-70
2020/12/16 11:28:10;;;;;;;12.43;7.03;;;;;;;2.65;72.72;101346.58;1666207;84;21055;-72
2020/12/16 11:30:39;;;;;;;13.75;8.15;;;;;;;2.65;72.55;101343.88;1708544;84;21119;-73
2020/12/16 11:33:08;;;;;;;15.50;8.40;;;;;;;2.61;72.56;101336.13;1693406;83;21751;-71
2020/12/16 11:35:35;;;;;;;16.10;8.80;;;;;;;2.59;72.75;101334.00;1682243;85;21782;-70
2020/12/16 11:38:02;;;;;;;16.42;9.10;;;;;;;2.63;72.83;101332.80;1680235;84;21054;-71